KTYR/TYR METAR and TAF weather

Enter ICAO airport designator
Station Type Date Time Source
KTYR METAR 2022/06/29 00:53 UTC NOAA

KTYR 290053Z AUTO 05006KT 10SM CLR 31/12 A3008 RMK AO2 SLP178 T03110117


Station Type Date Time Source
KTYR Decoded METAR 2022/06/29 00:53 UTC NOAA

TYLER POUNDS FIELDS, TX, United States (KTYR) 32-21N 095-24W 165M
Jun 28, 2022 - 08:53 PM EDT / 2022.06.29 0053 UTC
Wind: from the NE (050 degrees) at 7 MPH (6 KT):0
Visibility: 10 mile(s):0
Sky conditions: clear
Temperature: 88.0 F (31.1 C)
Dew Point: 53.1 F (11.7 C)
Relative Humidity: 30%
Pressure (altimeter): 30.08 in. Hg (1018 hPa)
ob: KTYR 290053Z AUTO 05006KT 10SM CLR 31/12 A3008 RMK AO2 SLP178 T03110117
cycle: 1

Station Type Date Time Source
KTYR TAF 2022/06/29 01:54 UTC NOAA

TAF
AMD KTYR 290051Z 2901/2924 05006KT P6SM SCT250
FM291000 05006KT P6SM SCT060 SCT120 SCT250
FM291600 07010KT P6SM SCT120 SCT250

Example: see airport list